sensor_id;sensor_type;location;lat;lon;timestamp;P1;durP1;ratioP1;P2;durP2;ratioP2
62572;SDS011;48626;51.678;5.806;2023-07-09T00:01:33;32.75;;;15.75;;
62572;SDS011;48626;51.678;5.806;2023-07-09T00:03:58;29.30;;;15.13;;
62572;SDS011;48626;51.678;5.806;2023-07-09T00:06:24;26.95;;;15.32;;
62572;SDS011;48626;51.678;5.806;2023-07-09T00:08:49;25.65;;;14.73;;
62572;SDS011;48626;51.678;5.806;2023-07-09T00:11:16;20.77;;;13.63;;
62572;SDS011;48626;51.678;5.806;2023-07-09T00:13:42;23.52;;;14.13;;
62572;SDS011;48626;51.678;5.806;2023-07-09T00:16:15;27.15;;;14.90;;
62572;SDS011;48626;51.678;5.806;2023-07-09T00:18:48;23.75;;;14.02;;
62572;SDS011;48626;51.678;5.806;2023-07-09T00:21:17;24.20;;;13.77;;
62572;SDS011;48626;51.678;5.806;2023-07-09T00:23:45;26.23;;;15.83;;
62572;SDS011;48626;51.678;5.806;2023-07-09T00:26:13;26.38;;;15.13;;
62572;SDS011;48626;51.678;5.806;2023-07-09T00:28:40;29.48;;;15.13;;
62572;SDS011;48626;51.678;5.806;2023-07-09T00:31:14;22.65;;;14.20;;
62572;SDS011;48626;51.678;5.806;2023-07-09T00:33:44;27.20;;;15.23;;
62572;SDS011;48626;51.678;5.806;2023-07-09T00:36:25;29.10;;;15.75;;
62572;SDS011;48626;51.678;5.806;2023-07-09T00:38:53;22.70;;;13.93;;
62572;SDS011;48626;51.678;5.806;2023-07-09T00:41:22;28.13;;;15.18;;
62572;SDS011;48626;51.678;5.806;2023-07-09T00:43:49;30.07;;;15.80;;
62572;SDS011;48626;51.678;5.806;2023-07-09T00:48:45;31.15;;;14.88;;
62572;SDS011;48626;51.678;5.806;2023-07-09T00:51:16;25.02;;;15.82;;
62572;SDS011;48626;51.678;5.806;2023-07-09T00:53:45;28.33;;;16.20;;
62572;SDS011;48626;51.678;5.806;2023-07-09T00:56:15;21.13;;;14.48;;
62572;SDS011;48626;51.678;5.806;2023-07-09T00:58:46;28.73;;;14.57;;
62572;SDS011;48626;51.678;5.806;2023-07-09T01:01:13;22.08;;;15.00;;
62572;SDS011;48626;51.678;5.806;2023-07-09T01:03:51;26.33;;;15.25;;
62572;SDS011;48626;51.678;5.806;2023-07-09T01:06:23;21.90;;;14.85;;
62572;SDS011;48626;51.678;5.806;2023-07-09T01:08:57;22.50;;;14.80;;
62572;SDS011;48626;51.678;5.806;2023-07-09T01:11:24;26.95;;;15.15;;
62572;SDS011;48626;51.678;5.806;2023-07-09T01:14:00;26.60;;;14.18;;
62572;SDS011;48626;51.678;5.806;2023-07-09T01:16:36;25.27;;;14.75;;
62572;SDS011;48626;51.678;5.806;2023-07-09T01:19:07;24.65;;;14.38;;
62572;SDS011;48626;51.678;5.806;2023-07-09T01:21:32;23.30;;;15.30;;
62572;SDS011;48626;51.678;5.806;2023-07-09T01:23:58;29.20;;;15.93;;
62572;SDS011;48626;51.678;5.806;2023-07-09T01:26:35;27.20;;;15.52;;
62572;SDS011;48626;51.678;5.806;2023-07-09T01:29:03;25.65;;;15.10;;
62572;SDS011;48626;51.678;5.806;2023-07-09T01:31:29;29.23;;;16.88;;
62572;SDS011;48626;51.678;5.806;2023-07-09T01:33:55;26.67;;;15.98;;
62572;SDS011;48626;51.678;5.806;2023-07-09T01:36:21;26.75;;;15.07;;
62572;SDS011;48626;51.678;5.806;2023-07-09T01:38:52;25.10;;;14.90;;
62572;SDS011;48626;51.678;5.806;2023-07-09T01:41:18;22.10;;;14.63;;
62572;SDS011;48626;51.678;5.806;2023-07-09T01:43:44;23.75;;;15.10;;
62572;SDS011;48626;51.678;5.806;2023-07-09T01:46:11;35.72;;;15.85;;
62572;SDS011;48626;51.678;5.806;2023-07-09T01:48:37;27.08;;;16.13;;
62572;SDS011;48626;51.678;5.806;2023-07-09T01:53:34;24.08;;;14.60;;
62572;SDS011;48626;51.678;5.806;2023-07-09T01:56:03;28.05;;;15.48;;
62572;SDS011;48626;51.678;5.806;2023-07-09T01:58:28;27.88;;;15.10;;
62572;SDS011;48626;51.678;5.806;2023-07-09T02:00:55;28.25;;;16.13;;
62572;SDS011;48626;51.678;5.806;2023-07-09T02:03:21;26.60;;;16.15;;
62572;SDS011;48626;51.678;5.806;2023-07-09T02:05:50;29.05;;;16.17;;
62572;SDS011;48626;51.678;5.806;2023-07-09T02:10:47;28.63;;;15.80;;
62572;SDS011;48626;51.678;5.806;2023-07-09T02:13:14;23.27;;;15.68;;
62572;SDS011;48626;51.678;5.806;2023-07-09T02:15:39;25.40;;;15.73;;
62572;SDS011;48626;51.678;5.806;2023-07-09T02:18:08;25.02;;;16.02;;
62572;SDS011;48626;51.678;5.806;2023-07-09T02:20:37;25.45;;;16.20;;
62572;SDS011;48626;51.678;5.806;2023-07-09T02:23:03;23.25;;;16.33;;
62572;SDS011;48626;51.678;5.806;2023-07-09T02:25:30;25.85;;;15.13;;
62572;SDS011;48626;51.678;5.806;2023-07-09T02:27:55;25.45;;;14.77;;
62572;SDS011;48626;51.678;5.806;2023-07-09T02:30:21;23.45;;;15.27;;
62572;SDS011;48626;51.678;5.806;2023-07-09T02:32:47;24.80;;;15.65;;
62572;SDS011;48626;51.678;5.806;2023-07-09T02:35:12;24.27;;;16.40;;
62572;SDS011;48626;51.678;5.806;2023-07-09T02:37:38;30.35;;;16.60;;
62572;SDS011;48626;51.678;5.806;2023-07-09T02:40:04;29.25;;;17.08;;
62572;SDS011;48626;51.678;5.806;2023-07-09T02:42:30;26.50;;;16.60;;
62572;SDS011;48626;51.678;5.806;2023-07-09T02:44:56;23.83;;;15.57;;
62572;SDS011;48626;51.678;5.806;2023-07-09T02:47:21;34.00;;;16.15;;
62572;SDS011;48626;51.678;5.806;2023-07-09T02:49:47;25.80;;;15.27;;
62572;SDS011;48626;51.678;5.806;2023-07-09T02:52:13;28.35;;;15.77;;
62572;SDS011;48626;51.678;5.806;2023-07-09T02:54:39;27.23;;;15.98;;
62572;SDS011;48626;51.678;5.806;2023-07-09T02:57:05;24.52;;;15.73;;
62572;SDS011;48626;51.678;5.806;2023-07-09T02:59:31;26.08;;;15.60;;
62572;SDS011;48626;51.678;5.806;2023-07-09T03:01:59;27.42;;;15.98;;
62572;SDS011;48626;51.678;5.806;2023-07-09T03:04:25;23.67;;;15.75;;
62572;SDS011;48626;51.678;5.806;2023-07-09T03:06:51;24.90;;;16.98;;
62572;SDS011;48626;51.678;5.806;2023-07-09T03:09:17;32.35;;;16.73;;
62572;SDS011;48626;51.678;5.806;2023-07-09T03:11:43;23.85;;;14.77;;
62572;SDS011;48626;51.678;5.806;2023-07-09T03:14:09;27.92;;;16.95;;
62572;SDS011;48626;51.678;5.806;2023-07-09T03:16:34;27.00;;;16.98;;
62572;SDS011;48626;51.678;5.806;2023-07-09T03:19:00;28.02;;;16.10;;
62572;SDS011;48626;51.678;5.806;2023-07-09T03:21:28;23.45;;;16.63;;
62572;SDS011;48626;51.678;5.806;2023-07-09T03:23:54;28.35;;;16.75;;
62572;SDS011;48626;51.678;5.806;2023-07-09T03:26:20;27.15;;;17.20;;
62572;SDS011;48626;51.678;5.806;2023-07-09T03:28:45;28.02;;;17.50;;
62572;SDS011;48626;51.678;5.806;2023-07-09T03:31:11;25.60;;;16.65;;
62572;SDS011;48626;51.678;5.806;2023-07-09T03:33:37;24.33;;;17.13;;
62572;SDS011;48626;51.678;5.806;2023-07-09T03:36:03;22.67;;;16.58;;
62572;SDS011;48626;51.678;5.806;2023-07-09T03:38:30;23.67;;;16.45;;
62572;SDS011;48626;51.678;5.806;2023-07-09T03:40:56;25.83;;;16.48;;
62572;SDS011;48626;51.678;5.806;2023-07-09T03:43:22;26.73;;;17.08;;
62572;SDS011;48626;51.678;5.806;2023-07-09T03:45:48;29.67;;;17.35;;
62572;SDS011;48626;51.678;5.806;2023-07-09T03:48:16;26.38;;;16.67;;
62572;SDS011;48626;51.678;5.806;2023-07-09T03:50:43;28.00;;;17.63;;
62572;SDS011;48626;51.678;5.806;2023-07-09T03:53:11;28.70;;;17.65;;
62572;SDS011;48626;51.678;5.806;2023-07-09T03:55:37;26.40;;;17.85;;
62572;SDS011;48626;51.678;5.806;2023-07-09T03:58:03;31.08;;;18.25;;
62572;SDS011;48626;51.678;5.806;2023-07-09T04:00:29;25.42;;;17.60;;
62572;SDS011;48626;51.678;5.806;2023-07-09T04:02:55;29.00;;;17.17;;
62572;SDS011;48626;51.678;5.806;2023-07-09T04:05:22;25.02;;;17.45;;
62572;SDS011;48626;51.678;5.806;2023-07-09T04:07:48;27.52;;;17.17;;
62572;SDS011;48626;51.678;5.806;2023-07-09T04:10:14;27.48;;;17.20;;
62572;SDS011;48626;51.678;5.806;2023-07-09T04:12:40;28.63;;;18.00;;
62572;SDS011;48626;51.678;5.806;2023-07-09T04:15:06;28.58;;;17.45;;
62572;SDS011;48626;51.678;5.806;2023-07-09T04:17:32;26.85;;;18.42;;
62572;SDS011;48626;51.678;5.806;2023-07-09T04:19:58;25.67;;;17.88;;
62572;SDS011;48626;51.678;5.806;2023-07-09T04:22:24;25.98;;;17.13;;
62572;SDS011;48626;51.678;5.806;2023-07-09T04:24:50;31.48;;;17.50;;
62572;SDS011;48626;51.678;5.806;2023-07-09T04:27:17;28.52;;;17.92;;
62572;SDS011;48626;51.678;5.806;2023-07-09T04:29:43;28.80;;;17.23;;
62572;SDS011;48626;51.678;5.806;2023-07-09T04:32:12;25.42;;;17.40;;
62572;SDS011;48626;51.678;5.806;2023-07-09T04:34:39;24.85;;;17.63;;
62572;SDS011;48626;51.678;5.806;2023-07-09T04:37:09;27.33;;;17.58;;
62572;SDS011;48626;51.678;5.806;2023-07-09T04:39:36;24.52;;;16.88;;
62572;SDS011;48626;51.678;5.806;2023-07-09T04:42:01;28.15;;;16.23;;
62572;SDS011;48626;51.678;5.806;2023-07-09T04:44:27;24.77;;;16.85;;
62572;SDS011;48626;51.678;5.806;2023-07-09T04:46:53;28.15;;;16.75;;
62572;SDS011;48626;51.678;5.806;2023-07-09T04:49:19;28.17;;;17.45;;
62572;SDS011;48626;51.678;5.806;2023-07-09T04:51:44;27.23;;;16.30;;
62572;SDS011;48626;51.678;5.806;2023-07-09T04:54:10;26.40;;;17.52;;
62572;SDS011;48626;51.678;5.806;2023-07-09T04:56:36;27.48;;;17.08;;
62572;SDS011;48626;51.678;5.806;2023-07-09T04:59:02;26.55;;;17.60;;
62572;SDS011;48626;51.678;5.806;2023-07-09T05:01:28;30.13;;;19.80;;
62572;SDS011;48626;51.678;5.806;2023-07-09T05:03:54;29.75;;;18.38;;
62572;SDS011;48626;51.678;5.806;2023-07-09T05:06:20;32.13;;;20.02;;
62572;SDS011;48626;51.678;5.806;2023-07-09T05:08:46;30.33;;;20.63;;
62572;SDS011;48626;51.678;5.806;2023-07-09T05:11:13;35.53;;;21.55;;
62572;SDS011;48626;51.678;5.806;2023-07-09T05:13:39;32.67;;;22.77;;
62572;SDS011;48626;51.678;5.806;2023-07-09T05:16:05;33.97;;;22.27;;
62572;SDS011;48626;51.678;5.806;2023-07-09T05:18:31;36.95;;;22.83;;
62572;SDS011;48626;51.678;5.806;2023-07-09T05:20:57;34.28;;;23.02;;
62572;SDS011;48626;51.678;5.806;2023-07-09T05:23:24;34.63;;;22.85;;
62572;SDS011;48626;51.678;5.806;2023-07-09T05:25:59;33.78;;;23.15;;
62572;SDS011;48626;51.678;5.806;2023-07-09T05:28:26;33.10;;;21.15;;
62572;SDS011;48626;51.678;5.806;2023-07-09T05:30:53;31.83;;;21.40;;
62572;SDS011;48626;51.678;5.806;2023-07-09T05:33:19;30.63;;;19.55;;
62572;SDS011;48626;51.678;5.806;2023-07-09T05:35:45;31.77;;;18.75;;
62572;SDS011;48626;51.678;5.806;2023-07-09T05:38:11;29.88;;;18.88;;
62572;SDS011;48626;51.678;5.806;2023-07-09T05:40:37;29.00;;;18.25;;
62572;SDS011;48626;51.678;5.806;2023-07-09T05:43:03;28.65;;;17.70;;
62572;SDS011;48626;51.678;5.806;2023-07-09T05:45:29;30.40;;;16.98;;
62572;SDS011;48626;51.678;5.806;2023-07-09T05:47:57;25.85;;;16.67;;
62572;SDS011;48626;51.678;5.806;2023-07-09T05:50:23;27.60;;;17.35;;
62572;SDS011;48626;51.678;5.806;2023-07-09T05:52:49;30.25;;;17.08;;
62572;SDS011;48626;51.678;5.806;2023-07-09T05:55:14;30.30;;;17.83;;
62572;SDS011;48626;51.678;5.806;2023-07-09T05:57:40;28.48;;;18.63;;
62572;SDS011;48626;51.678;5.806;2023-07-09T06:00:06;35.05;;;18.98;;
62572;SDS011;48626;51.678;5.806;2023-07-09T06:02:34;29.38;;;18.33;;
62572;SDS011;48626;51.678;5.806;2023-07-09T06:04:59;35.33;;;19.73;;
62572;SDS011;48626;51.678;5.806;2023-07-09T06:07:25;32.97;;;19.58;;
62572;SDS011;48626;51.678;5.806;2023-07-09T06:09:51;28.73;;;20.13;;
62572;SDS011;48626;51.678;5.806;2023-07-09T06:12:17;29.83;;;20.15;;
62572;SDS011;48626;51.678;5.806;2023-07-09T06:14:44;31.98;;;19.85;;
62572;SDS011;48626;51.678;5.806;2023-07-09T06:17:10;30.75;;;19.70;;
62572;SDS011;48626;51.678;5.806;2023-07-09T06:19:37;32.40;;;19.38;;
62572;SDS011;48626;51.678;5.806;2023-07-09T06:22:03;30.50;;;19.85;;
62572;SDS011;48626;51.678;5.806;2023-07-09T06:24:29;30.20;;;19.48;;
62572;SDS011;48626;51.678;5.806;2023-07-09T06:26:54;29.35;;;19.65;;
62572;SDS011;48626;51.678;5.806;2023-07-09T06:29:20;33.13;;;20.05;;
62572;SDS011;48626;51.678;5.806;2023-07-09T06:31:46;33.88;;;20.23;;
62572;SDS011;48626;51.678;5.806;2023-07-09T06:34:12;31.17;;;19.92;;
62572;SDS011;48626;51.678;5.806;2023-07-09T06:36:38;30.23;;;20.38;;
62572;SDS011;48626;51.678;5.806;2023-07-09T06:39:04;31.08;;;19.77;;
62572;SDS011;48626;51.678;5.806;2023-07-09T06:41:30;30.38;;;19.60;;
62572;SDS011;48626;51.678;5.806;2023-07-09T06:43:57;28.63;;;20.02;;
62572;SDS011;48626;51.678;5.806;2023-07-09T06:46:23;31.38;;;19.27;;
62572;SDS011;48626;51.678;5.806;2023-07-09T06:48:49;34.53;;;20.33;;
62572;SDS011;48626;51.678;5.806;2023-07-09T06:51:14;29.88;;;19.85;;
62572;SDS011;48626;51.678;5.806;2023-07-09T06:53:40;33.75;;;20.35;;
62572;SDS011;48626;51.678;5.806;2023-07-09T06:56:08;32.22;;;20.50;;
62572;SDS011;48626;51.678;5.806;2023-07-09T06:58:36;29.90;;;19.92;;
62572;SDS011;48626;51.678;5.806;2023-07-09T07:01:02;32.97;;;19.63;;
62572;SDS011;48626;51.678;5.806;2023-07-09T07:03:29;30.77;;;20.17;;
62572;SDS011;48626;51.678;5.806;2023-07-09T07:05:55;32.30;;;19.65;;
62572;SDS011;48626;51.678;5.806;2023-07-09T07:08:22;29.42;;;20.38;;
62572;SDS011;48626;51.678;5.806;2023-07-09T07:10:49;28.92;;;19.75;;
62572;SDS011;48626;51.678;5.806;2023-07-09T07:13:21;31.00;;;19.08;;
62572;SDS011;48626;51.678;5.806;2023-07-09T07:15:49;28.42;;;18.73;;
62572;SDS011;48626;51.678;5.806;2023-07-09T07:18:15;33.90;;;19.80;;
62572;SDS011;48626;51.678;5.806;2023-07-09T07:20:41;27.48;;;18.33;;
62572;SDS011;48626;51.678;5.806;2023-07-09T07:23:07;29.70;;;17.42;;
62572;SDS011;48626;51.678;5.806;2023-07-09T07:25:33;30.83;;;19.08;;
62572;SDS011;48626;51.678;5.806;2023-07-09T07:27:58;26.65;;;17.73;;
62572;SDS011;48626;51.678;5.806;2023-07-09T07:30:24;36.05;;;18.85;;
62572;SDS011;48626;51.678;5.806;2023-07-09T07:32:50;28.98;;;18.08;;
62572;SDS011;48626;51.678;5.806;2023-07-09T07:35:16;24.58;;;17.55;;
62572;SDS011;48626;51.678;5.806;2023-07-09T07:37:43;28.70;;;17.23;;
62572;SDS011;48626;51.678;5.806;2023-07-09T07:40:09;23.42;;;16.45;;
62572;SDS011;48626;51.678;5.806;2023-07-09T07:42:35;23.85;;;15.88;;
62572;SDS011;48626;51.678;5.806;2023-07-09T07:45:02;28.52;;;16.48;;
62572;SDS011;48626;51.678;5.806;2023-07-09T07:47:28;24.70;;;16.23;;
62572;SDS011;48626;51.678;5.806;2023-07-09T07:49:55;22.13;;;15.25;;
62572;SDS011;48626;51.678;5.806;2023-07-09T07:52:21;25.73;;;16.15;;
62572;SDS011;48626;51.678;5.806;2023-07-09T07:54:48;27.85;;;15.68;;
62572;SDS011;48626;51.678;5.806;2023-07-09T07:57:14;24.42;;;14.85;;
62572;SDS011;48626;51.678;5.806;2023-07-09T07:59:39;20.85;;;14.50;;
62572;SDS011;48626;51.678;5.806;2023-07-09T08:02:06;21.45;;;14.13;;
62572;SDS011;48626;51.678;5.806;2023-07-09T08:04:35;23.75;;;13.82;;
62572;SDS011;48626;51.678;5.806;2023-07-09T08:07:01;21.35;;;12.07;;
62572;SDS011;48626;51.678;5.806;2023-07-09T08:09:27;24.20;;;12.23;;
62572;SDS011;48626;51.678;5.806;2023-07-09T08:11:53;21.13;;;11.68;;
62572;SDS011;48626;51.678;5.806;2023-07-09T08:14:18;18.98;;;11.23;;
62572;SDS011;48626;51.678;5.806;2023-07-09T08:16:44;22.27;;;11.45;;
62572;SDS011;48626;51.678;5.806;2023-07-09T08:19:09;21.95;;;10.98;;
62572;SDS011;48626;51.678;5.806;2023-07-09T08:21:35;23.55;;;10.52;;
62572;SDS011;48626;51.678;5.806;2023-07-09T08:24:01;24.50;;;11.05;;
62572;SDS011;48626;51.678;5.806;2023-07-09T08:26:27;13.55;;;9.55;;
62572;SDS011;48626;51.678;5.806;2023-07-09T08:28:53;13.63;;;8.85;;
62572;SDS011;48626;51.678;5.806;2023-07-09T08:31:19;16.88;;;8.98;;
62572;SDS011;48626;51.678;5.806;2023-07-09T08:33:45;19.95;;;9.68;;
62572;SDS011;48626;51.678;5.806;2023-07-09T08:36:11;15.80;;;8.85;;
62572;SDS011;48626;51.678;5.806;2023-07-09T08:38:36;16.27;;;8.95;;
62572;SDS011;48626;51.678;5.806;2023-07-09T08:41:07;18.70;;;9.70;;
62572;SDS011;48626;51.678;5.806;2023-07-09T08:46:14;23.67;;;8.40;;
62572;SDS011;48626;51.678;5.806;2023-07-09T08:48:43;21.35;;;7.72;;
62572;SDS011;48626;51.678;5.806;2023-07-09T08:51:17;13.55;;;7.70;;
62572;SDS011;48626;51.678;5.806;2023-07-09T08:53:57;18.42;;;8.63;;
62572;SDS011;48626;51.678;5.806;2023-07-09T08:56:24;22.10;;;8.27;;
62572;SDS011;48626;51.678;5.806;2023-07-09T08:58:52;15.93;;;8.35;;
62572;SDS011;48626;51.678;5.806;2023-07-09T09:01:22;18.45;;;7.88;;
62572;SDS011;48626;51.678;5.806;2023-07-09T09:03:58;13.07;;;7.45;;
62572;SDS011;48626;51.678;5.806;2023-07-09T09:06:28;13.23;;;7.53;;
62572;SDS011;48626;51.678;5.806;2023-07-09T09:14:26;14.03;;;7.57;;
62572;SDS011;48626;51.678;5.806;2023-07-09T09:16:55;12.38;;;6.85;;
62572;SDS011;48626;51.678;5.806;2023-07-09T09:19:27;13.90;;;6.85;;
62572;SDS011;48626;51.678;5.806;2023-07-09T09:22:11;12.23;;;6.63;;
62572;SDS011;48626;51.678;5.806;2023-07-09T09:27:11;13.38;;;6.93;;
62572;SDS011;48626;51.678;5.806;2023-07-09T09:29:37;13.88;;;7.47;;
62572;SDS011;48626;51.678;5.806;2023-07-09T09:32:10;11.07;;;7.00;;
62572;SDS011;48626;51.678;5.806;2023-07-09T09:34:48;12.15;;;6.85;;
62572;SDS011;48626;51.678;5.806;2023-07-09T09:40:14;10.95;;;6.72;;
62572;SDS011;48626;51.678;5.806;2023-07-09T09:42:43;9.40;;;5.95;;
62572;SDS011;48626;51.678;5.806;2023-07-09T09:45:12;8.88;;;5.63;;
62572;SDS011;48626;51.678;5.806;2023-07-09T09:47:41;13.30;;;6.07;;
62572;SDS011;48626;51.678;5.806;2023-07-09T09:50:15;12.10;;;5.72;;
62572;SDS011;48626;51.678;5.806;2023-07-09T09:52:42;10.77;;;5.90;;
62572;SDS011;48626;51.678;5.806;2023-07-09T09:55:16;11.18;;;6.45;;
62572;SDS011;48626;51.678;5.806;2023-07-09T09:57:47;15.10;;;6.32;;
62572;SDS011;48626;51.678;5.806;2023-07-09T10:00:18;10.60;;;5.75;;
62572;SDS011;48626;51.678;5.806;2023-07-09T10:02:47;10.18;;;5.75;;
62572;SDS011;48626;51.678;5.806;2023-07-09T10:05:14;11.07;;;5.78;;
62572;SDS011;48626;51.678;5.806;2023-07-09T10:07:46;11.20;;;5.80;;
62572;SDS011;48626;51.678;5.806;2023-07-09T10:10:21;16.23;;;6.40;;
62572;SDS011;48626;51.678;5.806;2023-07-09T10:12:51;11.07;;;5.70;;
62572;SDS011;48626;51.678;5.806;2023-07-09T10:27:49;10.38;;;6.45;;
62572;SDS011;48626;51.678;5.806;2023-07-09T10:33:12;10.23;;;6.32;;
62572;SDS011;48626;51.678;5.806;2023-07-09T10:38:32;13.20;;;7.35;;
62572;SDS011;48626;51.678;5.806;2023-07-09T10:41:03;11.60;;;6.32;;
62572;SDS011;48626;51.678;5.806;2023-07-09T10:43:38;14.52;;;6.65;;
62572;SDS011;48626;51.678;5.806;2023-07-09T10:46:17;12.15;;;6.45;;
62572;SDS011;48626;51.678;5.806;2023-07-09T10:48:48;10.88;;;6.55;;
62572;SDS011;48626;51.678;5.806;2023-07-09T10:53:57;11.80;;;5.80;;
62572;SDS011;48626;51.678;5.806;2023-07-09T10:56:28;9.30;;;5.80;;
62572;SDS011;48626;51.678;5.806;2023-07-09T10:59:05;14.88;;;6.88;;
62572;SDS011;48626;51.678;5.806;2023-07-09T11:02:35;11.15;;;5.95;;
62572;SDS011;48626;51.678;5.806;2023-07-09T11:05:01;12.88;;;5.88;;
62572;SDS011;48626;51.678;5.806;2023-07-09T11:13:02;12.40;;;5.90;;
62572;SDS011;48626;51.678;5.806;2023-07-09T11:15:36;8.55;;;5.63;;
62572;SDS011;48626;51.678;5.806;2023-07-09T11:18:06;12.25;;;5.95;;
62572;SDS011;48626;51.678;5.806;2023-07-09T11:20:37;9.82;;;5.90;;
62572;SDS011;48626;51.678;5.806;2023-07-09T11:28:40;10.57;;;5.95;;
62572;SDS011;48626;51.678;5.806;2023-07-09T11:31:17;11.35;;;5.85;;
62572;SDS011;48626;51.678;5.806;2023-07-09T11:33:59;9.70;;;5.78;;
62572;SDS011;48626;51.678;5.806;2023-07-09T11:36:34;9.47;;;5.97;;
62572;SDS011;48626;51.678;5.806;2023-07-09T11:45:16;11.02;;;5.70;;
62572;SDS011;48626;51.678;5.806;2023-07-09T11:47:49;11.93;;;5.75;;
62572;SDS011;48626;51.678;5.806;2023-07-09T11:52:56;8.93;;;5.80;;
62572;SDS011;48626;51.678;5.806;2023-07-09T11:55:27;12.80;;;5.82;;
62572;SDS011;48626;51.678;5.806;2023-07-09T11:57:54;9.57;;;5.40;;
62572;SDS011;48626;51.678;5.806;2023-07-09T12:00:25;9.82;;;5.32;;
62572;SDS011;48626;51.678;5.806;2023-07-09T12:02:55;7.55;;;4.97;;
62572;SDS011;48626;51.678;5.806;2023-07-09T12:05:26;11.27;;;5.57;;
62572;SDS011;48626;51.678;5.806;2023-07-09T12:07:53;11.88;;;5.05;;
62572;SDS011;48626;51.678;5.806;2023-07-09T12:10:21;8.75;;;4.85;;
62572;SDS011;48626;51.678;5.806;2023-07-09T12:12:53;9.07;;;5.28;;
62572;SDS011;48626;51.678;5.806;2023-07-09T12:15:24;6.85;;;4.78;;
62572;SDS011;48626;51.678;5.806;2023-07-09T12:17:52;9.20;;;5.00;;
62572;SDS011;48626;51.678;5.806;2023-07-09T12:20:19;7.90;;;4.80;;
62572;SDS011;48626;51.678;5.806;2023-07-09T12:22:45;11.13;;;5.15;;
62572;SDS011;48626;51.678;5.806;2023-07-09T12:25:46;9.75;;;5.35;;
62572;SDS011;48626;51.678;5.806;2023-07-09T12:28:03;37.67;;;11.95;;
62572;SDS011;48626;51.678;5.806;2023-07-09T12:30:32;21.15;;;9.25;;
62572;SDS011;48626;51.678;5.806;2023-07-09T12:32:58;75.07;;;23.75;;
62572;SDS011;48626;51.678;5.806;2023-07-09T12:35:24;47.55;;;18.75;;
62572;SDS011;48626;51.678;5.806;2023-07-09T12:42:48;12.93;;;6.35;;
62572;SDS011;48626;51.678;5.806;2023-07-09T12:45:17;17.13;;;7.05;;
62572;SDS011;48626;51.678;5.806;2023-07-09T12:47:45;18.58;;;7.03;;
62572;SDS011;48626;51.678;5.806;2023-07-09T12:52:47;8.15;;;6.00;;
62572;SDS011;48626;51.678;5.806;2023-07-09T12:55:23;11.85;;;6.25;;
62572;SDS011;48626;51.678;5.806;2023-07-09T12:57:51;14.52;;;6.15;;
62572;SDS011;48626;51.678;5.806;2023-07-09T13:00:20;18.40;;;5.40;;
62572;SDS011;48626;51.678;5.806;2023-07-09T13:02:50;11.25;;;5.40;;
62572;SDS011;48626;51.678;5.806;2023-07-09T13:05:20;10.73;;;5.50;;
62572;SDS011;48626;51.678;5.806;2023-07-09T13:07:57;10.27;;;5.43;;
62572;SDS011;48626;51.678;5.806;2023-07-09T13:10:28;14.55;;;5.63;;
62572;SDS011;48626;51.678;5.806;2023-07-09T13:13:05;15.20;;;6.15;;
62572;SDS011;48626;51.678;5.806;2023-07-09T13:15:31;18.33;;;12.23;;
62572;SDS011;48626;51.678;5.806;2023-07-09T13:18:09;11.85;;;6.75;;
62572;SDS011;48626;51.678;5.806;2023-07-09T13:20:38;11.98;;;6.28;;
62572;SDS011;48626;51.678;5.806;2023-07-09T13:23:20;21.17;;;7.15;;
62572;SDS011;48626;51.678;5.806;2023-07-09T13:25:48;10.50;;;6.13;;
62572;SDS011;48626;51.678;5.806;2023-07-09T13:28:19;12.93;;;6.30;;
62572;SDS011;48626;51.678;5.806;2023-07-09T13:30:47;11.88;;;6.30;;
62572;SDS011;48626;51.678;5.806;2023-07-09T13:33:17;9.77;;;6.18;;
62572;SDS011;48626;51.678;5.806;2023-07-09T13:35:43;10.90;;;8.00;;
62572;SDS011;48626;51.678;5.806;2023-07-09T13:38:14;13.43;;;8.98;;
62572;SDS011;48626;51.678;5.806;2023-07-09T13:40:42;15.88;;;10.55;;
62572;SDS011;48626;51.678;5.806;2023-07-09T13:43:19;18.47;;;12.90;;
62572;SDS011;48626;51.678;5.806;2023-07-09T13:45:51;23.83;;;14.73;;
62572;SDS011;48626;51.678;5.806;2023-07-09T13:48:18;26.92;;;16.48;;
62572;SDS011;48626;51.678;5.806;2023-07-09T13:50:47;21.92;;;13.05;;
62572;SDS011;48626;51.678;5.806;2023-07-09T13:55:45;24.23;;;13.40;;
62572;SDS011;48626;51.678;5.806;2023-07-09T13:58:11;20.20;;;13.60;;
62572;SDS011;48626;51.678;5.806;2023-07-09T14:00:40;21.07;;;13.20;;
62572;SDS011;48626;51.678;5.806;2023-07-09T14:03:18;18.63;;;13.45;;
62572;SDS011;48626;51.678;5.806;2023-07-09T14:05:53;23.80;;;12.13;;
62572;SDS011;48626;51.678;5.806;2023-07-09T14:08:19;16.95;;;11.82;;
62572;SDS011;48626;51.678;5.806;2023-07-09T14:10:46;18.38;;;12.20;;
62572;SDS011;48626;51.678;5.806;2023-07-09T14:13:16;17.88;;;11.23;;
62572;SDS011;48626;51.678;5.806;2023-07-09T14:15:44;17.23;;;11.77;;
62572;SDS011;48626;51.678;5.806;2023-07-09T14:18:11;20.15;;;12.00;;
62572;SDS011;48626;51.678;5.806;2023-07-09T14:20:38;20.60;;;13.02;;
62572;SDS011;48626;51.678;5.806;2023-07-09T14:23:04;19.23;;;12.30;;
62572;SDS011;48626;51.678;5.806;2023-07-09T14:25:30;16.70;;;11.45;;
62572;SDS011;48626;51.678;5.806;2023-07-09T14:27:55;20.45;;;11.35;;
62572;SDS011;48626;51.678;5.806;2023-07-09T14:30:23;19.63;;;12.10;;
62572;SDS011;48626;51.678;5.806;2023-07-09T14:32:50;19.45;;;11.63;;
62572;SDS011;48626;51.678;5.806;2023-07-09T14:35:18;34.85;;;16.17;;
62572;SDS011;48626;51.678;5.806;2023-07-09T14:37:46;24.70;;;12.73;;
62572;SDS011;48626;51.678;5.806;2023-07-09T14:40:14;26.23;;;12.07;;
62572;SDS011;48626;51.678;5.806;2023-07-09T14:42:41;56.28;;;15.45;;
62572;SDS011;48626;51.678;5.806;2023-07-09T14:45:19;28.80;;;12.90;;
62572;SDS011;48626;51.678;5.806;2023-07-09T14:47:49;21.77;;;11.50;;
62572;SDS011;48626;51.678;5.806;2023-07-09T14:50:16;22.20;;;11.93;;
62572;SDS011;48626;51.678;5.806;2023-07-09T14:52:43;20.25;;;10.93;;
62572;SDS011;48626;51.678;5.806;2023-07-09T14:55:14;15.20;;;10.57;;
62572;SDS011;48626;51.678;5.806;2023-07-09T14:57:41;15.20;;;9.30;;
62572;SDS011;48626;51.678;5.806;2023-07-09T15:00:11;13.90;;;8.32;;
62572;SDS011;48626;51.678;5.806;2023-07-09T15:02:42;11.48;;;6.57;;
62572;SDS011;48626;51.678;5.806;2023-07-09T15:05:14;11.27;;;6.20;;
62572;SDS011;48626;51.678;5.806;2023-07-09T15:07:42;19.15;;;7.30;;
62572;SDS011;48626;51.678;5.806;2023-07-09T15:10:13;9.57;;;6.13;;
62572;SDS011;48626;51.678;5.806;2023-07-09T15:12:40;9.10;;;6.43;;
62572;SDS011;48626;51.678;5.806;2023-07-09T15:17:43;23.40;;;8.48;;
62572;SDS011;48626;51.678;5.806;2023-07-09T15:20:13;52.40;;;9.70;;
62572;SDS011;48626;51.678;5.806;2023-07-09T15:22:40;44.50;;;17.90;;
62572;SDS011;48626;51.678;5.806;2023-07-09T15:25:24;33.65;;;12.05;;
62572;SDS011;48626;51.678;5.806;2023-07-09T15:27:52;28.13;;;7.82;;
62572;SDS011;48626;51.678;5.806;2023-07-09T15:30:22;12.30;;;7.70;;
62572;SDS011;48626;51.678;5.806;2023-07-09T15:32:54;12.48;;;6.75;;
62572;SDS011;48626;51.678;5.806;2023-07-09T15:35:21;12.30;;;7.07;;
62572;SDS011;48626;51.678;5.806;2023-07-09T15:37:47;12.82;;;6.90;;
62572;SDS011;48626;51.678;5.806;2023-07-09T15:40:24;12.63;;;7.13;;
62572;SDS011;48626;51.678;5.806;2023-07-09T15:42:54;12.07;;;7.28;;
62572;SDS011;48626;51.678;5.806;2023-07-09T15:45:23;15.35;;;7.43;;
62572;SDS011;48626;51.678;5.806;2023-07-09T15:47:49;12.50;;;7.10;;